sensor_id;sensor_type;location;lat;lon;timestamp;P1;durP1;ratioP1;P2;durP2;ratioP2
60430;SDS011;46285;45.122;20.726;2023-02-25T00:04:16;49.40;;;26.85;;
60430;SDS011;46285;45.122;20.726;2023-02-25T00:14:17;48.00;;;25.23;;
60430;SDS011;46285;45.122;20.726;2023-02-25T00:24:18;39.97;;;22.45;;
60430;SDS011;46285;45.122;20.726;2023-02-25T00:34:19;42.75;;;20.45;;
60430;SDS011;46285;45.122;20.726;2023-02-25T00:44:20;39.33;;;20.98;;
60430;SDS011;46285;45.122;20.726;2023-02-25T00:54:22;41.45;;;22.90;;
60430;SDS011;46285;45.122;20.726;2023-02-25T01:04:23;35.97;;;20.52;;
60430;SDS011;46285;45.122;20.726;2023-02-25T01:14:25;45.55;;;21.25;;
60430;SDS011;46285;45.122;20.726;2023-02-25T01:24:27;40.60;;;20.40;;
60430;SDS011;46285;45.122;20.726;2023-02-25T01:34:29;36.42;;;16.38;;
60430;SDS011;46285;45.122;20.726;2023-02-25T01:44:37;34.80;;;17.40;;
60430;SDS011;46285;45.122;20.726;2023-02-25T01:54:54;38.08;;;18.85;;
60430;SDS011;46285;45.122;20.726;2023-02-25T02:04:56;33.05;;;17.80;;
60430;SDS011;46285;45.122;20.726;2023-02-25T02:14:59;33.33;;;15.45;;
60430;SDS011;46285;45.122;20.726;2023-02-25T02:25:19;31.48;;;14.57;;
60430;SDS011;46285;45.122;20.726;2023-02-25T02:45:24;28.40;;;14.70;;
60430;SDS011;46285;45.122;20.726;2023-02-25T02:55:34;31.92;;;14.48;;
60430;SDS011;46285;45.122;20.726;2023-02-25T03:05:38;26.15;;;12.98;;
60430;SDS011;46285;45.122;20.726;2023-02-25T03:15:41;31.38;;;13.95;;
60430;SDS011;46285;45.122;20.726;2023-02-25T03:25:48;28.65;;;12.98;;
60430;SDS011;46285;45.122;20.726;2023-02-25T03:35:54;23.85;;;9.65;;
60430;SDS011;46285;45.122;20.726;2023-02-25T03:45:56;29.38;;;12.00;;
60430;SDS011;46285;45.122;20.726;2023-02-25T03:55:59;21.45;;;9.55;;
60430;SDS011;46285;45.122;20.726;2023-02-25T04:06:00;17.52;;;7.68;;
60430;SDS011;46285;45.122;20.726;2023-02-25T04:16:01;17.50;;;8.80;;
60430;SDS011;46285;45.122;20.726;2023-02-25T04:26:05;16.98;;;7.50;;
60430;SDS011;46285;45.122;20.726;2023-02-25T04:36:20;18.55;;;7.65;;
60430;SDS011;46285;45.122;20.726;2023-02-25T04:46:21;17.83;;;6.68;;
60430;SDS011;46285;45.122;20.726;2023-02-25T04:56:22;22.02;;;9.77;;
60430;SDS011;46285;45.122;20.726;2023-02-25T05:06:24;19.98;;;7.15;;
60430;SDS011;46285;45.122;20.726;2023-02-25T05:16:25;14.77;;;6.28;;
60430;SDS011;46285;45.122;20.726;2023-02-25T05:26:26;18.08;;;8.07;;
60430;SDS011;46285;45.122;20.726;2023-02-25T05:36:27;15.05;;;8.15;;
60430;SDS011;46285;45.122;20.726;2023-02-25T05:46:28;16.13;;;7.25;;
60430;SDS011;46285;45.122;20.726;2023-02-25T05:56:29;53.72;;;31.85;;
60430;SDS011;46285;45.122;20.726;2023-02-25T06:06:30;17.45;;;8.45;;
60430;SDS011;46285;45.122;20.726;2023-02-25T06:16:31;32.53;;;17.15;;
60430;SDS011;46285;45.122;20.726;2023-02-25T06:26:33;42.50;;;19.08;;
60430;SDS011;46285;45.122;20.726;2023-02-25T06:36:35;38.28;;;22.02;;
60430;SDS011;46285;45.122;20.726;2023-02-25T06:46:36;33.15;;;18.45;;
60430;SDS011;46285;45.122;20.726;2023-02-25T06:56:37;18.27;;;11.07;;
60430;SDS011;46285;45.122;20.726;2023-02-25T07:06:38;32.30;;;20.70;;
60430;SDS011;46285;45.122;20.726;2023-02-25T07:16:39;42.00;;;22.35;;
60430;SDS011;46285;45.122;20.726;2023-02-25T07:26:40;51.88;;;28.33;;
60430;SDS011;46285;45.122;20.726;2023-02-25T07:36:42;53.60;;;30.50;;
60430;SDS011;46285;45.122;20.726;2023-02-25T07:46:43;27.73;;;17.40;;
60430;SDS011;46285;45.122;20.726;2023-02-25T07:56:44;32.78;;;19.17;;
60430;SDS011;46285;45.122;20.726;2023-02-25T08:06:45;30.83;;;17.05;;
60430;SDS011;46285;45.122;20.726;2023-02-25T08:16:46;31.55;;;16.15;;
60430;SDS011;46285;45.122;20.726;2023-02-25T08:26:48;35.97;;;18.17;;
60430;SDS011;46285;45.122;20.726;2023-02-25T08:36:49;44.95;;;20.60;;
60430;SDS011;46285;45.122;20.726;2023-02-25T08:46:50;38.47;;;23.10;;
60430;SDS011;46285;45.122;20.726;2023-02-25T08:56:52;38.28;;;23.65;;
60430;SDS011;46285;45.122;20.726;2023-02-25T09:06:54;50.15;;;26.92;;
60430;SDS011;46285;45.122;20.726;2023-02-25T09:16:55;50.25;;;30.10;;
60430;SDS011;46285;45.122;20.726;2023-02-25T09:26:56;38.65;;;27.65;;
60430;SDS011;46285;45.122;20.726;2023-02-25T09:36:57;64.93;;;38.45;;
60430;SDS011;46285;45.122;20.726;2023-02-25T09:57:03;51.00;;;38.60;;
60430;SDS011;46285;45.122;20.726;2023-02-25T10:07:06;61.53;;;46.30;;
60430;SDS011;46285;45.122;20.726;2023-02-25T10:37:24;60.13;;;43.83;;
60430;SDS011;46285;45.122;20.726;2023-02-25T10:47:48;58.53;;;44.15;;
60430;SDS011;46285;45.122;20.726;2023-02-25T10:57:47;41.92;;;29.00;;
60430;SDS011;46285;45.122;20.726;2023-02-25T11:07:49;40.83;;;30.40;;
60430;SDS011;46285;45.122;20.726;2023-02-25T11:17:50;38.65;;;29.13;;
60430;SDS011;46285;45.122;20.726;2023-02-25T11:27:53;46.17;;;32.80;;
60430;SDS011;46285;45.122;20.726;2023-02-25T11:37:55;43.40;;;31.38;;
60430;SDS011;46285;45.122;20.726;2023-02-25T11:47:57;36.60;;;22.80;;
60430;SDS011;46285;45.122;20.726;2023-02-25T13:10:02;7.45;;;3.78;;
60430;SDS011;46285;45.122;20.726;2023-02-25T14:42:03;10.50;;;6.18;;
60430;SDS011;46285;45.122;20.726;2023-02-25T14:52:10;25.77;;;13.27;;
60430;SDS011;46285;45.122;20.726;2023-02-25T15:22:55;19.95;;;9.30;;
60430;SDS011;46285;45.122;20.726;2023-02-25T15:33:12;35.50;;;17.42;;
60430;SDS011;46285;45.122;20.726;2023-02-25T16:13:33;43.83;;;21.23;;
60430;SDS011;46285;45.122;20.726;2023-02-25T16:23:37;45.92;;;21.50;;
60430;SDS011;46285;45.122;20.726;2023-02-25T16:33:43;31.52;;;16.52;;
60430;SDS011;46285;45.122;20.726;2023-02-25T16:43:47;31.10;;;16.95;;
60430;SDS011;46285;45.122;20.726;2023-02-25T16:53:49;13.05;;;8.50;;
60430;SDS011;46285;45.122;20.726;2023-02-25T17:03:51;17.60;;;11.23;;
60430;SDS011;46285;45.122;20.726;2023-02-25T17:14:01;87.95;;;45.13;;
60430;SDS011;46285;45.122;20.726;2023-02-25T17:24:04;14.15;;;7.38;;
60430;SDS011;46285;45.122;20.726;2023-02-25T17:34:09;15.55;;;8.90;;
60430;SDS011;46285;45.122;20.726;2023-02-25T17:54:33;24.48;;;10.57;;
60430;SDS011;46285;45.122;20.726;2023-02-25T18:04:37;51.63;;;22.30;;
60430;SDS011;46285;45.122;20.726;2023-02-25T18:14:42;47.80;;;19.23;;
60430;SDS011;46285;45.122;20.726;2023-02-25T18:24:44;21.27;;;10.47;;
60430;SDS011;46285;45.122;20.726;2023-02-25T18:34:51;12.80;;;6.35;;
60430;SDS011;46285;45.122;20.726;2023-02-25T18:44:52;17.55;;;8.52;;
60430;SDS011;46285;45.122;20.726;2023-02-25T18:54:53;45.97;;;23.92;;
60430;SDS011;46285;45.122;20.726;2023-02-25T19:04:54;56.28;;;28.70;;
60430;SDS011;46285;45.122;20.726;2023-02-25T19:14:56;62.17;;;33.55;;
60430;SDS011;46285;45.122;20.726;2023-02-25T19:24:58;17.45;;;8.95;;
60430;SDS011;46285;45.122;20.726;2023-02-25T19:35:00;32.72;;;17.27;;
60430;SDS011;46285;45.122;20.726;2023-02-25T19:45:03;24.83;;;12.18;;
60430;SDS011;46285;45.122;20.726;2023-02-25T19:55:04;96.97;;;36.08;;
60430;SDS011;46285;45.122;20.726;2023-02-25T20:05:07;77.18;;;33.22;;
60430;SDS011;46285;45.122;20.726;2023-02-25T20:15:08;59.20;;;24.73;;
60430;SDS011;46285;45.122;20.726;2023-02-25T20:25:10;45.03;;;21.92;;
60430;SDS011;46285;45.122;20.726;2023-02-25T20:35:13;48.80;;;22.52;;
60430;SDS011;46285;45.122;20.726;2023-02-25T20:45:15;33.42;;;14.02;;
60430;SDS011;46285;45.122;20.726;2023-02-25T20:55:16;53.72;;;27.02;;
60430;SDS011;46285;45.122;20.726;2023-02-25T21:05:17;145.98;;;46.00;;
60430;SDS011;46285;45.122;20.726;2023-02-25T21:15:19;32.33;;;19.00;;
60430;SDS011;46285;45.122;20.726;2023-02-25T21:25:20;39.00;;;26.15;;
60430;SDS011;46285;45.122;20.726;2023-02-25T21:35:21;13.32;;;8.20;;
60430;SDS011;46285;45.122;20.726;2023-02-25T21:45:23;15.48;;;7.45;;
60430;SDS011;46285;45.122;20.726;2023-02-25T21:55:24;23.95;;;10.48;;
60430;SDS011;46285;45.122;20.726;2023-02-25T22:05:25;10.13;;;5.40;;
60430;SDS011;46285;45.122;20.726;2023-02-25T22:15:26;15.27;;;7.82;;
60430;SDS011;46285;45.122;20.726;2023-02-25T22:25:27;15.40;;;7.18;;
60430;SDS011;46285;45.122;20.726;2023-02-25T22:35:29;14.20;;;6.80;;
60430;SDS011;46285;45.122;20.726;2023-02-25T22:45:30;9.75;;;5.38;;
60430;SDS011;46285;45.122;20.726;2023-02-25T22:55:32;13.02;;;6.95;;
60430;SDS011;46285;45.122;20.726;2023-02-25T23:05:33;9.50;;;4.75;;
60430;SDS011;46285;45.122;20.726;2023-02-25T23:15:35;7.95;;;2.97;;
60430;SDS011;46285;45.122;20.726;2023-02-25T23:25:37;7.18;;;2.80;;
60430;SDS011;46285;45.122;20.726;2023-02-25T23:35:39;8.13;;;3.30;;
60430;SDS011;46285;45.122;20.726;2023-02-25T23:45:40;9.23;;;4.28;;
60430;SDS011;46285;45.122;20.726;2023-02-25T23:55:42;14.45;;;8.18;;
